Time;durP1;ratioP1;P1;durP2;ratioP2;P2;SDS_P1;SDS_P2;PMS_P1;PMS_P2;Temp;Humidity;BMP_temperature;BMP_pressure;BME280_temperature;BME280_humidity;BME280_pressure;Samples;Min_cycle;Max_cycle;Signal;HPM_P1;HPM_P2
2021/10/23 07:00:20;;;;;;;33.63;15.72;;;;;;;10.35;68.40;100173.52;1711734;82;21135;-35
2021/10/23 07:02:49;;;;;;;35.00;14.43;;;;;;;10.43;67.49;100178.30;1656864;84;21656;-35
2021/10/23 07:05:18;;;;;;;31.80;14.43;;;;;;;10.52;67.47;100189.20;1688539;82;21029;-36
2021/10/23 07:10:11;;;;;;;34.92;14.75;;;;;;;10.63;66.74;100201.39;1698304;81;20994;-40
2021/10/23 07:12:45;;;;;;;30.02;14.00;;;;;;;10.67;65.98;100199.65;1689263;81;21062;-38
2021/10/23 07:15:13;;;;;;;;;;;;;;;10.72;65.21;100203.54;1714649;82;21119;-40
2021/10/23 07:17:42;;;;;;;27.77;13.43;;;;;;;10.75;65.16;100206.16;1674313;84;20428;-37
2021/10/23 07:20:11;;;;;;;25.25;12.60;;;;;;;10.78;64.69;100208.76;1664414;83;21083;-40
2021/10/23 07:22:40;;;;;;;27.93;14.15;;;;;;;10.82;64.27;100200.03;1695811;83;21679;-40
2021/10/23 07:25:08;;;;;;;27.52;12.30;;;;;;;10.87;64.06;100201.77;1688092;83;21149;-38
2021/10/23 07:27:37;;;;;;;25.15;13.10;;;;;;;10.95;64.63;100195.63;1683091;83;21158;-40
2021/10/23 07:30:12;;;;;;;21.62;12.15;;;;;;;11.02;63.96;100199.55;1709411;82;21000;-40
2021/10/23 07:32:39;;;;;;;22.45;10.88;;;;;;;11.07;62.34;100204.75;1698490;81;21092;-40
2021/10/23 07:35:12;;;;;;;19.80;12.33;;;;;;;11.07;62.02;100209.98;1717754;82;21090;-40
2021/10/23 07:37:49;;;;;;;19.62;11.38;;;;;;;11.05;61.16;100214.37;1720973;81;21083;-36
2021/10/23 07:40:24;;;;;;;43.20;14.25;;;;;;;11.06;61.33;100224.83;1703287;83;21135;-40
2021/10/23 07:43:01;;;;;;;31.62;12.93;;;;;;;11.06;61.60;100230.06;1689274;83;21522;-36
2021/10/23 07:45:40;;;;;;;21.73;11.50;;;;;;;11.06;61.80;100230.06;1640080;83;21520;-36
2021/10/23 07:48:07;;;;;;;29.95;12.95;;;;;;;11.10;61.81;100228.31;1706868;82;21107;-40
2021/10/23 07:50:35;;;;;;;25.17;12.80;;;;;;;11.15;61.51;100223.94;1715352;81;21194;-36
2021/10/23 07:53:03;;;;;;;28.67;13.05;;;;;;;11.23;61.56;100216.05;1712212;81;21030;-40
2021/10/23 07:55:35;;;;;;;28.40;12.25;;;;;;;11.32;60.70;100206.86;1686568;82;21092;-40
2021/10/23 07:58:29;;;;;;;27.62;12.82;;;;;;;11.39;60.43;100214.67;1698362;82;21053;-37
2021/10/23 08:01:01;;;;;;;20.62;11.85;;;;;;;11.45;59.80;100213.77;1700551;81;21667;-41
2021/10/23 08:03:41;;;;;;;34.40;12.88;;;;;;;11.55;59.94;100217.23;1706625;82;21525;-41
2021/10/23 08:06:36;;;;;;;23.12;11.55;;;;;;;11.65;59.39;100214.55;1688849;82;21047;-42
2021/10/23 08:09:29;;;;;;;21.12;10.18;;;;;;;11.73;59.10;100220.61;1661505;83;21173;-36
2021/10/23 08:12:03;;;;;;;20.88;11.15;;;;;;;11.82;58.58;100224.08;1704116;82;21251;-41
2021/10/23 08:14:36;;;;;;;20.80;11.20;;;;;;;11.83;56.77;100228.02;1704099;81;21125;-40
2021/10/23 08:17:11;;;;;;;17.35;8.85;;;;;;;11.84;57.01;100232.81;1681691;82;21106;-36
2021/10/23 08:37:50;;;;;;;27.73;12.40;;;;;;;11.94;54.59;100219.64;1725725;78;21890;-35
2021/10/23 08:50:00;;;;;;;26.42;10.25;;;;;;;12.29;54.22;100234.22;1712267;78;22886;31
2021/10/23 09:03:48;;;;;;;15.25;6.05;;;;;;;12.32;51.69;100261.75;1692038;80;21138;31
2021/10/23 09:19:12;;;;;;;18.85;7.12;;;;;;;12.05;50.07;100256.25;1640363;84;21221;-40
2021/10/23 09:22:22;;;;;;;17.82;5.87;;;;;;;12.11;51.22;100235.67;1686174;81;21104;-37
2021/10/23 09:24:55;;;;;;;10.48;5.25;;;;;;;12.20;50.49;100251.36;1674982;82;21068;-36
2021/10/23 09:46:54;;;;;;;4.80;3.35;;;;;;;13.39;48.29;100218.67;1690261;80;21071;-38
2021/10/23 09:49:27;;;;;;;9.23;3.37;;;;;;;13.57;45.69;100215.84;1688284;83;21163;-39
2021/10/23 09:52:08;;;;;;;7.10;3.55;;;;;;;13.74;45.44;100204.19;1691404;83;21128;-40
2021/10/23 09:54:38;;;;;;;7.97;3.67;;;;;;;14.06;44.67;100201.09;1666555;84;21139;-40
2021/10/23 09:57:19;;;;;;;8.98;3.40;;;;;;;14.29;44.11;100202.91;1663701;84;21039;-39
2021/10/23 09:59:46;;;;;;;8.40;3.30;;;;;;;14.37;43.42;100202.31;1654207;86;21073;-36
2021/10/23 10:07:33;;;;;;;8.03;4.58;;;;;;;14.77;43.19;100215.27;1696079;83;21509;-35
2021/10/23 10:10:01;;;;;;;11.48;4.53;;;;;;;15.23;42.58;100217.02;1695020;82;21103;-40
2021/10/23 10:12:30;;;;;;;7.58;3.85;;;;;;;15.74;41.51;100216.39;1685487;83;21080;-40
2021/10/23 10:15:05;;;;;;;9.20;3.72;;;;;;;16.14;40.61;100221.62;1677346;83;21136;-40
2021/10/23 10:17:37;;;;;;;8.38;3.85;;;;;;;16.41;38.96;100223.18;1675825;83;21152;-36
2021/10/23 10:20:29;;;;;;;9.58;3.62;;;;;;;16.47;39.42;100218.61;1672848;83;21117;-36
2021/10/23 10:24:14;;;;;;;6.40;3.52;;;;;;;16.38;38.75;100216.64;1709493;82;21124;-36
2021/10/23 10:26:57;;;;;;;9.23;3.80;;;;;;;16.19;39.53;100232.94;1638326;84;21121;-40
2021/10/23 10:29:49;;;;;;;11.95;6.42;;;;;;;15.82;39.88;100222.80;1685133;83;21233;-41
2021/10/23 11:03:47;;;;;;;7.12;2.87;;;;;;;14.00;44.57;100253.80;1657272;85;21988;-36
2021/10/23 11:06:33;;;;;;;6.12;3.77;;;;;;;14.00;43.89;100245.45;1621924;86;21628;-36
2021/10/23 11:09:19;;;;;;;6.62;3.30;;;;;;;14.00;43.76;100251.16;1654027;84;21078;-37
2021/10/23 11:11:53;;;;;;;10.28;4.40;;;;;;;13.98;44.00;100238.49;1660259;84;21361;-40
2021/10/23 11:14:37;;;;;;;7.67;3.20;;;;;;;13.98;44.70;100230.61;1621270;86;21077;-36
2021/10/23 11:17:14;;;;;;;6.17;3.40;;;;;;;14.08;44.73;100230.41;1629207;85;21136;-40
2021/10/23 11:19:47;;;;;;;9.73;4.10;;;;;;;14.21;44.71;100229.80;1634826;85;21052;-35
2021/10/23 11:22:33;;;;;;;10.70;3.62;;;;;;;14.32;44.41;100230.50;1623810;85;21599;-40
2021/10/23 11:25:11;;;;;;;9.23;3.50;;;;;;;14.40;44.56;100233.45;1625325;86;21532;-36
2021/10/23 11:27:49;;;;;;;9.83;3.40;;;;;;;14.41;43.74;100228.15;1626770;86;21625;-40
2021/10/23 11:30:33;;;;;;;8.10;3.47;;;;;;;14.41;44.07;100240.44;1615994;85;21163;-41
2021/10/23 11:33:05;;;;;;;7.72;3.42;;;;;;;14.57;43.56;100240.64;1623958;84;21073;-36
2021/10/23 11:35:42;;;;;;;6.58;4.20;;;;;;;14.85;43.18;100228.73;1584036;86;21102;-40
2021/10/23 11:38:22;;;;;;;7.55;3.67;;;;;;;15.09;41.80;100237.06;1637164;86;21176;-39
2021/10/23 11:41:36;;;;;;;9.98;3.75;;;;;;;15.07;41.98;100242.78;1619294;86;21150;-39
2021/10/23 11:44:28;;;;;;;5.45;3.60;;;;;;;14.92;42.49;100247.05;1623813;86;21632;-36
2021/10/23 11:49:32;;;;;;;12.15;4.25;;;;;;;14.47;43.38;100237.73;1590389;86;21043;-35
2021/10/23 11:52:07;;;;;;;12.50;4.80;;;;;;;14.35;43.13;100239.64;1602289;87;21098;-39
2021/10/23 11:54:47;;;;;;;13.30;4.95;;;;;;;14.30;43.96;100227.45;1615604;86;21075;-35
2021/10/23 11:57:47;;;;;;;4.62;3.10;;;;;;;14.28;43.93;100221.36;1620700;86;21104;-40
2021/10/23 12:00:17;;;;;;;7.55;3.10;;;;;;;14.22;43.08;100226.27;1602211;88;21628;-40
2021/10/23 12:03:20;;;;;;;5.80;2.72;;;;;;;14.16;43.27;100226.81;1623166;86;21111;-35
2021/10/23 12:06:23;;;;;;;8.25;3.55;;;;;;;14.12;43.17;100235.19;1599499;87;21104;-37
2021/10/23 12:09:18;;;;;;;7.67;3.12;;;;;;;14.27;43.01;100227.07;1603018;88;21115;-35
2021/10/23 12:12:13;;;;;;;8.35;2.70;;;;;;;14.40;42.45;100227.73;1579019;87;21177;-36
2021/10/23 12:14:45;;;;;;;10.48;2.55;;;;;;;14.62;42.40;100237.04;1606168;88;21808;-39
2021/10/23 12:17:13;;;;;;;7.28;2.65;;;;;;;15.01;40.69;100226.65;1603259;87;21169;-35
2021/10/23 12:22:16;;;;;;;6.30;2.12;;;;;;;15.67;37.89;100227.53;1708827;82;21032;-41
2021/10/23 12:24:50;;;;;;;4.37;3.37;;;;;;;15.86;37.88;100226.66;1692126;82;21421;-40
2021/10/23 12:27:31;;;;;;;3.60;2.67;;;;;;;16.01;37.82;100219.31;1706198;81;21127;-40
2021/10/23 12:30:10;;;;;;;5.87;2.58;;;;;;;16.16;37.93;100222.89;1685555;80;21037;-40
2021/10/23 12:32:42;;;;;;;5.87;3.20;;;;;;;16.39;36.61;100218.37;1718261;80;21531;-41
2021/10/23 12:35:26;;;;;;;4.30;2.30;;;;;;;16.71;35.37;100221.55;1749369;80;22189;-40
2021/10/23 12:37:58;;;;;;;7.47;3.58;;;;;;;16.93;34.32;100227.11;1696819;82;22053;-40
2021/10/23 12:40:39;;;;;;;4.72;2.37;;;;;;;17.07;33.04;100223.65;1695687;82;21626;-38
2021/10/23 12:46:59;;;;;;;6.65;2.52;;;;;;;16.94;32.74;100239.44;1747158;78;21611;-39
2021/10/23 12:57:25;;;;;;;4.95;2.55;;;;;;;15.18;36.52;100250.04;1714605;81;21097;-36
2021/10/23 13:00:42;;;;;;;8.40;3.85;;;;;;;14.92;37.75;100253.19;1694751;82;21086;-35
2021/10/23 13:06:59;;;;;;;5.83;3.05;;;;;;;14.68;38.22;100260.21;1754832;78;21582;-38
2021/10/23 13:09:33;;;;;;;4.83;2.65;;;;;;;14.49;38.60;100265.76;1759931;79;21025;-39
2021/10/23 13:12:03;;;;;;;9.35;3.37;;;;;;;14.41;38.64;100260.18;1728162;80;21367;-39
2021/10/23 13:14:31;;;;;;;6.45;3.37;;;;;;;14.36;39.18;100258.48;1729639;80;21011;-35
2021/10/23 13:17:00;;;;;;;10.18;3.98;;;;;;;14.32;39.69;100256.81;1715835;80;21027;-39
2021/10/23 13:21:55;;;;;;;7.22;3.70;;;;;;;14.36;39.76;100261.11;1769749;80;21122;-39
2021/10/23 13:26:53;;;;;;;6.97;3.52;;;;;;;14.69;39.33;100265.44;1718526;81;21059;-39
